createdAt,value
2022-10-25T00:00:36.363Z,10.80
2022-10-25T00:03:24.292Z,13.10
2022-10-25T00:05:52.377Z,10.30
2022-10-25T00:08:20.334Z,10.60
2022-10-25T00:11:08.083Z,12.50
2022-10-25T00:13:36.277Z,11.30
2022-10-25T00:16:04.676Z,11.70
2022-10-25T00:18:33.717Z,10.50
2022-10-25T00:21:04.869Z,11.10
2022-10-25T00:23:33.139Z,11.20
2022-10-25T00:26:02.951Z,11.10
2022-10-25T00:28:31.146Z,11.40
2022-10-25T00:31:07.333Z,10.50
2022-10-25T00:33:37.004Z,9.40
2022-10-25T00:36:07.732Z,11.80
2022-10-25T00:38:36.425Z,12.10
2022-10-25T00:41:05.468Z,11.40
2022-10-25T00:43:55.709Z,11.90
2022-10-25T00:46:31.011Z,11.10
2022-10-25T00:49:18.799Z,11.20
2022-10-25T00:51:50.340Z,11.30
2022-10-25T00:57:01.929Z,12.70
2022-10-25T00:59:30.017Z,12.30
2022-10-25T01:01:58.464Z,13.00
2022-10-25T01:04:29.124Z,11.50
2022-10-25T01:06:58.026Z,10.30
2022-10-25T01:09:32.057Z,10.90
2022-10-25T01:12:01.126Z,9.90
2022-10-25T01:14:32.610Z,10.20
2022-10-25T01:17:22.048Z,9.20
2022-10-25T01:20:11.899Z,12.40
2022-10-25T01:22:53.733Z,14.40
2022-10-25T01:26:03.106Z,11.50
2022-10-25T01:28:40.156Z,10.80
2022-10-25T01:31:32.915Z,10.30
2022-10-25T01:34:06.917Z,11.10
2022-10-25T01:36:50.047Z,10.80
2022-10-25T01:39:26.306Z,10.60
2022-10-25T01:42:37.993Z,11.00
2022-10-25T01:45:27.988Z,10.70
2022-10-25T01:48:36.522Z,10.50
2022-10-25T01:51:10.316Z,9.60
2022-10-25T01:53:46.384Z,9.40
2022-10-25T01:56:38.524Z,10.80
2022-10-25T01:59:18.896Z,11.30
2022-10-25T02:02:08.858Z,10.90
2022-10-25T02:05:01.547Z,9.90
2022-10-25T02:07:38.895Z,11.20
2022-10-25T02:10:15.973Z,10.80
2022-10-25T02:12:56.944Z,10.20
2022-10-25T02:15:38.738Z,10.00
2022-10-25T02:18:16.232Z,10.50
2022-10-25T02:20:46.934Z,11.70
2022-10-25T02:23:18.014Z,13.20
2022-10-25T02:25:48.105Z,12.40
2022-10-25T02:28:19.585Z,11.90
2022-10-25T02:30:50.115Z,10.10
2022-10-25T02:33:18.085Z,11.80
2022-10-25T02:36:05.300Z,10.00
2022-10-25T02:38:34.620Z,11.60
2022-10-25T02:41:04.829Z,8.30
2022-10-25T02:43:33.013Z,8.50
2022-10-25T02:46:09.471Z,9.20
2022-10-25T02:48:38.468Z,8.70
2022-10-25T02:51:07.864Z,9.90
2022-10-25T02:56:11.117Z,8.20
2022-10-25T02:58:41.300Z,9.90
2022-10-25T03:01:09.685Z,9.80
2022-10-25T03:03:38.257Z,10.60
2022-10-25T03:06:07.150Z,10.90
2022-10-25T03:11:04.325Z,9.20
2022-10-25T03:13:32.491Z,9.80
2022-10-25T03:16:00.491Z,11.20
2022-10-25T03:18:28.648Z,10.10
2022-10-25T03:20:58.227Z,10.40
2022-10-25T03:23:27.344Z,11.70
2022-10-25T03:25:57.460Z,12.20
2022-10-25T03:28:30.175Z,12.20
2022-10-25T03:30:59.988Z,11.80
2022-10-25T03:33:28.066Z,11.80
2022-10-25T03:35:56.307Z,11.40
2022-10-25T03:38:24.451Z,11.40
2022-10-25T03:40:53.789Z,11.80
2022-10-25T03:45:54.946Z,12.00
2022-10-25T03:48:23.013Z,12.00
2022-10-25T03:50:50.998Z,12.90
2022-10-25T03:53:18.963Z,11.10
2022-10-25T03:55:46.823Z,12.10
2022-10-25T03:58:14.802Z,10.50
2022-10-25T04:00:42.819Z,10.70
2022-10-25T04:03:11.654Z,9.80
2022-10-25T04:05:39.626Z,11.10
2022-10-25T04:08:08.031Z,10.00
2022-10-25T04:10:36.076Z,11.20
2022-10-25T04:13:04.252Z,10.30
2022-10-25T04:15:32.430Z,10.80
2022-10-25T04:18:00.594Z,9.40
2022-10-25T04:20:28.675Z,9.00
2022-10-25T04:22:57.672Z,9.60
2022-10-25T04:25:27.265Z,10.90
2022-10-25T04:27:56.265Z,11.70
2022-10-25T04:30:24.180Z,13.20
2022-10-25T04:32:52.644Z,11.00
2022-10-25T04:35:21.190Z,10.90
2022-10-25T04:37:50.284Z,9.50
2022-10-25T04:42:53.860Z,9.10
2022-10-25T04:45:21.886Z,11.30
2022-10-25T04:47:49.748Z,11.20
2022-10-25T04:50:17.812Z,11.30
2022-10-25T04:52:46.055Z,12.70
2022-10-25T04:55:14.366Z,12.40
2022-10-25T04:57:42.343Z,10.90
2022-10-25T05:00:11.115Z,13.60
2022-10-25T05:02:39.077Z,14.50
2022-10-25T05:05:07.370Z,13.10
2022-10-25T05:07:35.655Z,12.60
2022-10-25T05:10:03.829Z,12.30
2022-10-25T05:12:31.859Z,12.70
2022-10-25T05:14:59.872Z,11.60
2022-10-25T05:17:29.166Z,14.10
2022-10-25T05:19:57.087Z,13.50
2022-10-25T05:22:25.725Z,14.20
2022-10-25T05:24:53.688Z,11.60
2022-10-25T05:27:22.101Z,15.80
2022-10-25T05:29:49.995Z,15.60
2022-10-25T05:32:17.913Z,15.00
2022-10-25T05:34:45.882Z,15.70
2022-10-25T05:37:14.588Z,17.40
2022-10-25T05:39:42.641Z,16.10
2022-10-25T05:42:10.715Z,16.60
2022-10-25T05:44:38.783Z,17.40
2022-10-25T05:47:06.805Z,16.50
2022-10-25T05:49:39.735Z,16.90
2022-10-25T05:52:07.660Z,19.00
2022-10-25T05:54:36.116Z,18.40
2022-10-25T05:57:04.049Z,18.60
2022-10-25T05:59:32.196Z,21.00
2022-10-25T06:02:00.276Z,22.10
2022-10-25T06:04:28.472Z,19.90
2022-10-25T06:06:58.193Z,18.90
2022-10-25T06:09:26.075Z,16.60
2022-10-25T06:11:54.334Z,16.60
2022-10-25T06:14:22.303Z,17.10
2022-10-25T06:16:50.683Z,16.00
2022-10-25T06:19:18.579Z,16.20
2022-10-25T06:21:47.132Z,17.00
2022-10-25T06:24:15.108Z,18.70
2022-10-25T06:26:43.146Z,15.70
2022-10-25T06:29:11.087Z,20.70
2022-10-25T06:31:39.014Z,17.90
2022-10-25T06:34:07.196Z,18.40
2022-10-25T06:36:35.153Z,19.10
2022-10-25T06:39:06.687Z,20.00
2022-10-25T06:41:38.996Z,20.70
2022-10-25T06:44:08.692Z,21.10
2022-10-25T06:49:27.881Z,19.70
2022-10-25T06:51:56.353Z,21.20
2022-10-25T06:54:25.788Z,20.90
2022-10-25T06:56:54.233Z,21.90
2022-10-25T06:59:22.305Z,22.20
2022-10-25T07:01:50.605Z,21.20
2022-10-25T07:04:18.779Z,21.40
2022-10-25T07:06:49.965Z,21.20
2022-10-25T07:09:20.750Z,21.60
2022-10-25T07:11:48.705Z,21.30
2022-10-25T07:14:17.248Z,20.40
2022-10-25T07:16:45.077Z,21.40
2022-10-25T07:19:12.983Z,21.50
2022-10-25T07:21:41.608Z,21.40
2022-10-25T07:24:11.335Z,24.30
2022-10-25T07:26:40.629Z,21.40
2022-10-25T07:31:41.046Z,22.00
2022-10-25T07:34:12.121Z,22.20
2022-10-25T07:36:40.856Z,20.40
2022-10-25T07:39:08.977Z,24.10
2022-10-25T07:41:37.274Z,21.50
2022-10-25T07:44:05.315Z,22.90
2022-10-25T07:46:33.491Z,21.50
2022-10-25T07:49:01.650Z,21.90
2022-10-25T07:51:29.555Z,21.00
2022-10-25T07:53:57.616Z,21.70
2022-10-25T07:56:25.800Z,21.50
2022-10-25T07:58:53.849Z,21.80
2022-10-25T08:01:24.593Z,20.20
2022-10-25T08:03:55.039Z,20.90
2022-10-25T08:06:25.339Z,21.70
2022-10-25T08:08:54.341Z,21.30
2022-10-25T08:11:22.427Z,21.50
2022-10-25T08:13:50.808Z,19.90
2022-10-25T08:16:19.067Z,17.90
2022-10-25T08:18:47.289Z,18.70
2022-10-25T08:21:15.718Z,17.30
2022-10-25T08:23:43.785Z,19.50
2022-10-25T08:26:11.766Z,18.90
2022-10-25T08:28:40.058Z,19.80
2022-10-25T08:31:08.728Z,20.20
2022-10-25T08:36:05.794Z,20.90
2022-10-25T08:38:33.959Z,18.90
2022-10-25T08:41:06.134Z,19.60
2022-10-25T08:43:43.438Z,20.00
2022-10-25T08:46:27.790Z,19.30
2022-10-25T08:49:53.511Z,20.70
2022-10-25T08:52:38.163Z,20.40
2022-10-25T08:55:15.659Z,19.60
2022-10-25T08:57:47.529Z,20.40
2022-10-25T09:00:21.642Z,22.40
2022-10-25T09:02:54.303Z,19.40
2022-10-25T09:05:34.794Z,20.70
2022-10-25T09:08:15.856Z,18.90
2022-10-25T09:10:57.645Z,17.90
2022-10-25T09:13:31.681Z,16.30
2022-10-25T09:16:29.014Z,18.90
2022-10-25T09:18:57.819Z,17.20
2022-10-25T09:21:41.136Z,19.20
2022-10-25T09:24:22.023Z,18.80
2022-10-25T09:26:59.691Z,20.90
2022-10-25T09:29:46.477Z,18.90
2022-10-25T09:32:34.040Z,20.30
2022-10-25T09:35:04.620Z,20.10
2022-10-25T09:37:42.275Z,20.50
2022-10-25T09:40:18.376Z,21.00
2022-10-25T09:42:59.274Z,21.60
2022-10-25T09:45:42.531Z,21.00
2022-10-25T09:48:29.271Z,19.70
2022-10-25T09:51:24.605Z,22.00
2022-10-25T09:53:54.543Z,18.50
2022-10-25T09:56:22.850Z,19.80
2022-10-25T09:58:50.810Z,21.60
2022-10-25T10:01:25.986Z,21.50
2022-10-25T10:04:01.507Z,20.70
2022-10-25T10:06:39.288Z,20.50
2022-10-25T10:09:12.073Z,20.00
2022-10-25T10:11:42.403Z,16.00
2022-10-25T10:14:25.941Z,19.10
2022-10-25T10:16:58.363Z,17.10
2022-10-25T10:19:30.228Z,15.40
2022-10-25T10:22:06.676Z,15.30
2022-10-25T10:24:43.963Z,16.20
2022-10-25T10:27:20.758Z,16.60
2022-10-25T10:30:02.591Z,17.40
2022-10-25T10:32:36.264Z,18.70
2022-10-25T10:35:07.915Z,17.50
2022-10-25T10:37:38.012Z,19.10
2022-10-25T10:40:09.114Z,17.10
2022-10-25T10:42:41.423Z,18.40
2022-10-25T10:45:09.357Z,19.00
2022-10-25T10:47:49.939Z,18.10
2022-10-25T10:50:21.472Z,19.10
2022-10-25T10:52:59.978Z,18.90
2022-10-25T10:55:32.774Z,19.50
2022-10-25T10:58:25.236Z,20.10
2022-10-25T11:00:56.066Z,18.50
2022-10-25T11:03:36.690Z,18.70
2022-10-25T11:06:26.500Z,18.70
2022-10-25T11:09:25.601Z,16.50
2022-10-25T11:12:23.267Z,17.00
2022-10-25T11:14:51.235Z,17.60
2022-10-25T11:17:32.367Z,17.00
2022-10-25T11:20:18.891Z,16.40
2022-10-25T11:25:34.121Z,16.30
2022-10-25T11:28:32.399Z,14.30
2022-10-25T11:31:06.517Z,15.80
2022-10-25T11:33:59.985Z,17.50
2022-10-25T11:37:03.955Z,16.80
2022-10-25T11:39:48.550Z,16.30
2022-10-25T11:42:54.722Z,14.80
2022-10-25T11:45:34.741Z,16.00
2022-10-25T11:48:18.864Z,17.60
2022-10-25T11:51:36.547Z,16.90
2022-10-25T11:54:30.123Z,16.80
2022-10-25T11:57:13.044Z,15.80
2022-10-25T11:59:53.769Z,16.20
2022-10-25T12:02:40.264Z,15.80
2022-10-25T12:05:33.166Z,17.10
2022-10-25T12:08:36.667Z,15.20
2022-10-25T12:11:13.768Z,16.00
2022-10-25T12:13:49.365Z,15.80
2022-10-25T12:16:20.202Z,14.60
2022-10-25T12:19:24.734Z,14.60
2022-10-25T12:22:06.638Z,14.90
2022-10-25T12:24:41.393Z,13.10
2022-10-25T12:27:11.722Z,14.10
2022-10-25T12:29:48.803Z,14.10
2022-10-25T12:32:41.700Z,13.90
2022-10-25T12:35:23.346Z,14.70
2022-10-25T12:38:01.344Z,14.10
2022-10-25T12:40:29.834Z,15.10
2022-10-25T12:43:23.781Z,15.20
2022-10-25T12:46:15.115Z,12.90
2022-10-25T12:48:53.229Z,13.60
2022-10-25T12:51:40.046Z,13.50
2022-10-25T12:54:23.196Z,12.30
2022-10-25T12:57:03.537Z,13.50
2022-10-25T13:00:15.033Z,12.10
2022-10-25T13:03:23.646Z,11.30
2022-10-25T13:08:25.625Z,12.80
2022-10-25T13:11:00.764Z,11.40
2022-10-25T13:13:33.778Z,12.40
2022-10-25T13:16:04.876Z,10.80
2022-10-25T13:18:32.768Z,8.10
2022-10-25T13:21:02.380Z,8.40
2022-10-25T13:23:42.734Z,10.20
2022-10-25T13:26:14.081Z,11.10
2022-10-25T13:28:46.775Z,5.60
2022-10-25T13:31:36.686Z,4.50
2022-10-25T13:34:13.931Z,3.90
2022-10-25T13:36:54.921Z,3.90
2022-10-25T13:39:33.771Z,3.50
2022-10-25T13:42:33.142Z,3.00
2022-10-25T13:45:04.113Z,3.60
2022-10-25T13:47:46.578Z,3.40
2022-10-25T13:50:33.415Z,3.50
2022-10-25T13:53:05.497Z,3.00
2022-10-25T13:55:44.690Z,3.70
2022-10-25T13:58:32.283Z,3.90
2022-10-25T14:01:16.269Z,3.30
2022-10-25T14:04:02.778Z,3.30
2022-10-25T14:06:33.974Z,2.90
2022-10-25T14:09:27.290Z,2.50
2022-10-25T14:12:01.299Z,3.10
2022-10-25T14:14:41.666Z,2.90
2022-10-25T14:17:16.626Z,3.00
2022-10-25T14:19:51.416Z,3.10
2022-10-25T14:22:43.824Z,3.10
2022-10-25T14:25:17.994Z,2.90
2022-10-25T14:27:46.349Z,3.00
2022-10-25T14:30:20.374Z,3.50
2022-10-25T14:32:54.281Z,3.80
2022-10-25T14:35:24.295Z,4.00
2022-10-25T14:37:52.468Z,4.80
2022-10-25T14:40:24.551Z,14.80
2022-10-25T14:42:56.516Z,15.70
2022-10-25T14:45:26.949Z,12.60
2022-10-25T14:47:55.138Z,11.30
2022-10-25T14:50:25.748Z,7.20
2022-10-25T14:52:56.953Z,7.30
2022-10-25T14:55:31.434Z,4.70
2022-10-25T14:58:03.096Z,5.50
2022-10-25T15:00:31.420Z,5.20
2022-10-25T15:03:04.351Z,5.10
2022-10-25T15:05:32.340Z,5.20
2022-10-25T15:08:01.075Z,4.50
2022-10-25T15:10:48.753Z,5.20
2022-10-25T15:13:50.667Z,5.20
2022-10-25T15:16:36.632Z,3.90
2022-10-25T15:19:04.481Z,4.30
2022-10-25T15:21:44.369Z,4.50
2022-10-25T15:24:19.244Z,4.50
2022-10-25T15:27:07.973Z,4.80
2022-10-25T15:32:20.670Z,4.70
2022-10-25T15:34:59.140Z,5.60
2022-10-25T15:37:29.180Z,4.80
2022-10-25T15:40:05.377Z,5.20
2022-10-25T15:42:35.903Z,5.20
2022-10-25T15:45:04.782Z,5.20
2022-10-25T15:47:35.652Z,4.90
2022-10-25T15:50:12.834Z,5.80
2022-10-25T15:52:41.503Z,6.00
2022-10-25T15:55:20.528Z,5.80
2022-10-25T16:00:22.850Z,5.80
2022-10-25T16:02:54.058Z,5.80
2022-10-25T16:05:25.932Z,5.60
2022-10-25T16:07:54.500Z,5.20
2022-10-25T16:10:24.519Z,5.50
2022-10-25T16:12:59.570Z,5.10
2022-10-25T16:15:28.185Z,4.90
2022-10-25T16:17:56.219Z,5.70
2022-10-25T16:20:27.115Z,7.20
2022-10-25T16:22:56.047Z,7.30
2022-10-25T16:25:30.560Z,7.60
2022-10-25T16:28:01.768Z,8.90
2022-10-25T16:30:38.336Z,9.70
2022-10-25T16:33:09.047Z,8.40
2022-10-25T16:35:37.289Z,9.00
2022-10-25T16:38:06.818Z,8.90
2022-10-25T16:40:35.226Z,9.00
2022-10-25T16:43:03.553Z,7.90
2022-10-25T16:45:36.994Z,8.20
2022-10-25T16:48:05.925Z,7.70
2022-10-25T16:50:34.519Z,7.40
2022-10-25T16:53:06.879Z,7.60
2022-10-25T16:55:35.802Z,7.70
2022-10-25T16:58:03.774Z,6.60
2022-10-25T17:00:36.127Z,6.30
2022-10-25T17:03:04.259Z,6.00
2022-10-25T17:05:36.268Z,6.40
2022-10-25T17:08:04.240Z,6.00
2022-10-25T17:10:32.415Z,5.90
2022-10-25T17:13:03.912Z,5.80
2022-10-25T17:15:32.558Z,5.90
2022-10-25T17:18:00.631Z,5.70
2022-10-25T17:20:29.107Z,6.40
2022-10-25T17:22:57.763Z,6.10
2022-10-25T17:25:25.857Z,6.50
2022-10-25T17:27:54.556Z,4.50
2022-10-25T17:30:22.523Z,5.10
2022-10-25T17:32:50.798Z,6.50
2022-10-25T17:35:28.568Z,7.10
2022-10-25T17:37:58.003Z,7.60
2022-10-25T17:40:26.343Z,7.10
2022-10-25T17:42:55.782Z,5.70
2022-10-25T17:45:23.651Z,6.40
2022-10-25T17:47:51.459Z,5.40
2022-10-25T17:50:21.123Z,5.10
2022-10-25T17:52:52.264Z,5.10
2022-10-25T17:55:20.440Z,4.60
2022-10-25T17:57:49.039Z,5.00
2022-10-25T18:00:17.405Z,4.70
2022-10-25T18:02:51.213Z,4.70
2022-10-25T18:05:21.785Z,15.90
2022-10-25T18:07:52.985Z,6.10
2022-10-25T18:10:21.678Z,8.70
2022-10-25T18:12:50.806Z,7.00
2022-10-25T18:15:19.146Z,8.70
2022-10-25T18:17:47.702Z,7.20
2022-10-25T18:20:16.018Z,5.80
2022-10-25T18:22:44.694Z,5.50
2022-10-25T18:25:12.879Z,7.60
2022-10-25T18:27:40.840Z,7.10
2022-10-25T18:30:09.848Z,5.90
2022-10-25T18:32:38.316Z,6.50
2022-10-25T18:35:06.703Z,6.00
2022-10-25T18:37:34.618Z,5.40
2022-10-25T18:40:02.752Z,9.80
2022-10-25T18:42:31.221Z,35.30
2022-10-25T18:44:59.142Z,16.40
2022-10-25T18:47:27.274Z,7.30
2022-10-25T18:49:55.228Z,4.80
2022-10-25T18:52:23.514Z,4.00
2022-10-25T18:54:53.584Z,5.00
2022-10-25T18:57:21.698Z,6.50
2022-10-25T18:59:53.210Z,21.60
2022-10-25T19:02:23.045Z,9.60
2022-10-25T19:04:51.183Z,4.00
2022-10-25T19:07:19.305Z,4.20
2022-10-25T19:09:47.281Z,4.00
2022-10-25T19:12:15.143Z,4.50
2022-10-25T19:14:43.494Z,3.80
2022-10-25T19:17:12.350Z,3.90
2022-10-25T19:19:40.239Z,4.00
2022-10-25T19:22:08.557Z,3.40
2022-10-25T19:24:38.480Z,3.50
2022-10-25T19:27:06.635Z,3.50
2022-10-25T19:29:34.928Z,4.20
2022-10-25T19:32:03.045Z,4.20
2022-10-25T19:34:31.273Z,4.30
2022-10-25T19:37:04.478Z,4.10
2022-10-25T19:39:32.646Z,4.00
2022-10-25T19:42:00.644Z,4.30
2022-10-25T19:44:28.687Z,4.10
2022-10-25T19:46:56.865Z,3.70
2022-10-25T19:49:25.043Z,4.30
2022-10-25T19:51:53.027Z,4.20
2022-10-25T19:54:20.978Z,4.90
2022-10-25T19:56:49.056Z,3.90
2022-10-25T19:59:17.179Z,4.10
2022-10-25T20:01:47.719Z,3.70
2022-10-25T20:04:19.158Z,3.90
2022-10-25T20:06:47.308Z,4.10
2022-10-25T20:09:15.545Z,3.50
2022-10-25T20:11:44.051Z,4.00
2022-10-25T20:14:12.525Z,3.80
2022-10-25T20:16:40.514Z,4.90
2022-10-25T20:19:15.331Z,4.40
2022-10-25T20:21:43.386Z,4.50
2022-10-25T20:24:12.280Z,4.50
2022-10-25T20:26:42.058Z,4.90
2022-10-25T20:29:18.653Z,4.60
2022-10-25T20:31:51.205Z,4.40
2022-10-25T20:34:20.643Z,4.80
2022-10-25T20:36:49.636Z,4.60
2022-10-25T20:39:18.027Z,4.60
2022-10-25T20:41:46.104Z,4.60
2022-10-25T20:44:14.915Z,5.10
2022-10-25T20:46:43.533Z,4.10
2022-10-25T20:49:11.731Z,4.20
2022-10-25T20:51:39.809Z,4.60
2022-10-25T20:54:09.650Z,5.20
2022-10-25T20:56:39.680Z,5.00
2022-10-25T20:59:08.926Z,6.20
2022-10-25T21:01:37.957Z,5.20
2022-10-25T21:04:06.007Z,5.50
2022-10-25T21:06:33.928Z,5.20
2022-10-25T21:09:02.409Z,6.10
2022-10-25T21:11:30.588Z,5.20
2022-10-25T21:13:58.389Z,5.70
2022-10-25T21:16:26.680Z,5.20
2022-10-25T21:18:54.658Z,4.70
2022-10-25T21:21:22.918Z,5.40
2022-10-25T21:23:55.668Z,5.60
2022-10-25T21:26:24.255Z,5.00
2022-10-25T21:28:52.781Z,5.20
2022-10-25T21:31:20.842Z,5.30
2022-10-25T21:33:51.117Z,5.00
2022-10-25T21:36:21.083Z,5.20
2022-10-25T21:38:49.415Z,5.10
2022-10-25T21:41:26.914Z,4.80
2022-10-25T21:43:57.047Z,4.90
2022-10-25T21:46:27.501Z,4.60
2022-10-25T21:48:55.982Z,4.60
2022-10-25T21:51:24.771Z,5.70
2022-10-25T21:53:55.290Z,4.50
2022-10-25T21:56:30.785Z,4.20
2022-10-25T21:59:00.477Z,5.10
2022-10-25T22:01:30.815Z,4.90
2022-10-25T22:03:59.569Z,5.20
2022-10-25T22:06:28.255Z,4.40
2022-10-25T22:08:57.803Z,5.20
2022-10-25T22:11:28.508Z,5.10
2022-10-25T22:13:59.084Z,4.80
2022-10-25T22:16:27.396Z,4.90
2022-10-25T22:18:58.914Z,5.40
2022-10-25T22:21:29.595Z,5.20
2022-10-25T22:23:58.374Z,5.10
2022-10-25T22:26:26.458Z,5.20
2022-10-25T22:28:56.673Z,5.00
2022-10-25T22:31:26.172Z,4.40
2022-10-25T22:33:59.492Z,5.00
2022-10-25T22:36:33.273Z,5.00
2022-10-25T22:39:02.275Z,4.60
2022-10-25T22:41:31.092Z,4.50
2022-10-25T22:43:59.845Z,4.40
2022-10-25T22:46:31.399Z,3.50
2022-10-25T22:49:00.650Z,4.30
2022-10-25T22:51:28.887Z,4.80
2022-10-25T22:53:56.944Z,5.70
2022-10-25T22:56:27.675Z,5.30
2022-10-25T22:58:57.816Z,5.10
2022-10-25T23:01:28.338Z,5.40
2022-10-25T23:03:57.988Z,5.70
2022-10-25T23:06:28.707Z,3.70
2022-10-25T23:08:58.625Z,5.20
2022-10-25T23:11:29.291Z,5.50
2022-10-25T23:13:58.330Z,5.60
2022-10-25T23:16:27.355Z,4.80
2022-10-25T23:21:25.896Z,4.40
2022-10-25T23:23:56.038Z,4.30
2022-10-25T23:26:28.206Z,4.00
2022-10-25T23:28:57.099Z,4.30
2022-10-25T23:31:25.471Z,4.20
2022-10-25T23:33:55.999Z,5.30
2022-10-25T23:36:26.941Z,4.80
2022-10-25T23:38:56.320Z,5.10
2022-10-25T23:41:24.730Z,5.50
2022-10-25T23:43:52.760Z,4.80
2022-10-25T23:46:20.691Z,5.10
2022-10-25T23:48:48.783Z,5.60
2022-10-25T23:51:18.464Z,4.80
2022-10-25T23:53:46.522Z,5.50
2022-10-25T23:56:14.789Z,5.30
2022-10-25T23:58:43.048Z,4.70
